首页
METAR-TAF:

METAR-TAF

机场 :

费尔班克斯国际机场

費爾班克斯, 阿拉斯加州, 美国

纬度: 64-48-14N, 经度: 147-52-34W, 海拔: 132米

当前天气观测

该预报发布于47分钟前的18:53 UTC
风速18节,风向西
温度 13°C
湿度 62%
气压 1011 hPa
能見度: 16.1公里
散云层高于4500英尺
多云层高于8000英尺
多云层高于10000英尺
多云层高于20000英尺

METAR: PAFA 231853Z 26018KT 10SM SCT045 BKN080 BKN100 BKN200 13/06 A2986 RMK AO2 WSHFT 1810 RAE51 SLP114 PRSNT WX VCSH W P0005 T01330056

时间: 11:40 (19:40 UTC)

预报

该预报发布于1小时和57分钟前的17:43 UTC
预报有效从23日的 18点(UTC)到 24日的 24点(UTC)
风速3节,风向多变
能見度: 10公里
散云层高于5000英尺
多云层高于7000英尺
小阵雨
从 23日的 2000点(UTC)
风速5节,风向西转西南
能見度: 10公里
散云层高于5000英尺
多云层高于7000英尺
附近有阵雨
从 24日的 0200点(UTC)
风速8节,风向西转西南
能見度: 10公里
多云层高于5000英尺
附近有阵雨
几率 30%
从 24日的 03点(UTC)到 24日的 06点(UTC)
多云层高于5000英尺, 积雨云.
雷暴, 小雨
从 24日的 0600点(UTC)
风速7节,风向西转西南
能見度: 10公里
多云层高于5000英尺
小阵雨
从 24日的 1600点(UTC)
风速8节,风向西
能見度: 10公里
多云层高于5000英尺
附近有阵雨

TAF: PAFA 231743Z 2318/2424 VRB03KT P6SM -SHRA SCT050 BKN070 FM232000 25005KT P6SM VCSH SCT050 BKN070 FM240200 25008KT P6SM VCSH BKN050 PROB30 2403/2406 -TSRA BKN050CB FM240600 25007KT P6SM -SHRA BKN050 FM241600 27008KT P6SM VCSH BKN050

超过4000个机场的气象观测和天气预报(METAR&TAF报告)。

可查询的气象台以黄色和红色小点在地图上表示。

将鼠标移到小点上方,可查看气象台名称。

然后点击查看天气观测和预报。

如需切换地图:点击带黑十字的绿色按钮放大地图;点击带横线的绿色按钮缩小地图;或者点击绿色箭头查看邻近地区的地图。


METAR-TAF: